Time;durP1;ratioP1;P1;durP2;ratioP2;P2;SDS_P1;SDS_P2;PMS_P1;PMS_P2;Temp;Humidity;BMP_temperature;BMP_pressure;BME280_temperature;BME280_humidity;BME280_pressure;Samples;Min_cycle;Max_cycle;Signal;HPM_P1;HPM_P2
2023/09/04 00:01:14;;;;;;;0.10;0.10;;;;;;;;;;6353219;27;20103;-85
2023/09/04 00:04:15;;;;;;;0.10;0.10;;;;;;;;;;6349171;27;20028;-85
2023/09/04 00:07:16;;;;;;;0.10;0.10;;;;;;;;;;6345074;27;20016;-86
2023/09/04 00:10:16;;;;;;;0.10;0.10;;;;;;;;;;6340356;27;20508;-85
2023/09/04 00:13:16;;;;;;;0.10;0.10;;;;;;;;;;6350513;27;20023;-85
2023/09/04 00:16:17;;;;;;;0.10;0.10;;;;;;;;;;6345503;27;20030;-85
2023/09/04 00:19:20;;;;;;;0.10;0.10;;;;;;;;;;6339061;27;20077;-85
2023/09/04 00:22:20;;;;;;;0.10;0.10;;;;;;;;;;6346049;28;20030;-85
2023/09/04 00:25:21;;;;;;;0.10;0.10;;;;;;;;;;6344621;27;20027;-85
2023/09/04 00:28:21;;;;;;;0.10;0.10;;;;;;;;;;6338891;27;20038;-84
2023/09/04 00:31:23;;;;;;;0.10;0.10;;;;;;;;;;6348405;27;20039;-84
2023/09/04 00:34:23;;;;;;;0.10;0.10;;;;;;;;;;6352885;27;20023;-85
2023/09/04 00:37:24;;;;;;;0.10;0.10;;;;;;;;;;6353288;27;20501;-85
2023/09/04 00:40:24;;;;;;;0.10;0.10;;;;;;;;;;6359840;27;20094;-86
2023/09/04 00:43:33;;;;;;;0.10;0.10;;;;;;;;;;6343866;27;20068;-85
2023/09/04 00:46:33;;;;;;;0.10;0.10;;;;;;;;;;6352673;27;20031;-85
2023/09/04 00:49:34;;;;;;;0.10;0.10;;;;;;;;;;6343504;27;20020;-85
2023/09/04 00:52:35;;;;;;;0.10;0.10;;;;;;;;;;6328434;28;20063;-85
2023/09/04 00:55:37;;;;;;;0.10;0.10;;;;;;;;;;6347043;27;20034;-85
2023/09/04 00:58:37;;;;;;;0.10;0.10;;;;;;;;;;6351449;27;20102;-85
2023/09/04 01:01:38;;;;;;;0.10;0.10;;;;;;;;;;6352311;27;20030;-85
2023/09/04 01:04:38;;;;;;;0.10;0.10;;;;;;;;;;6341710;27;20126;-83
2023/09/04 01:07:41;;;;;;;0.10;0.10;;;;;;;;;;6361762;27;20367;-84
2023/09/04 01:10:41;;;;;;;0.10;0.10;;;;;;;;;;6354900;27;20031;-84
2023/09/04 01:13:49;;;;;;;0.10;0.10;;;;;;;;;;6362537;27;20634;-84
2023/09/04 01:16:49;;;;;;;0.10;0.10;;;;;;;;;;6356027;27;20031;-85
2023/09/04 01:19:49;;;;;;;0.10;0.10;;;;;;;;;;6346634;27;20027;-86
2023/09/04 01:22:50;;;;;;;0.10;0.10;;;;;;;;;;6347526;27;20027;-86
2023/09/04 01:25:57;;;;;;;0.10;0.10;;;;;;;;;;6345161;27;20048;-86
2023/09/04 01:29:03;;;;;;;0.10;0.10;;;;;;;;;;6352451;27;20490;-85
2023/09/04 01:32:07;;;;;;;0.10;0.10;;;;;;;;;;6350210;27;20098;-85
2023/09/04 01:35:11;;;;;;;0.10;0.10;;;;;;;;;;6350898;27;20810;-85
2023/09/04 01:38:11;;;;;;;0.10;0.10;;;;;;;;;;6326460;27;20045;-85
2023/09/04 01:41:12;;;;;;;0.10;0.10;;;;;;;;;;6348852;27;20015;-85
2023/09/04 01:44:14;;;;;;;0.10;0.10;;;;;;;;;;6339960;28;20047;-86
2023/09/04 01:47:18;;;;;;;0.10;0.10;;;;;;;;;;6352980;27;20020;-85
2023/09/04 01:50:18;;;;;;;0.10;0.10;;;;;;;;;;6348511;27;20031;-86
2023/09/04 01:53:18;;;;;;;0.10;0.10;;;;;;;;;;6361906;27;20516;-85
2023/09/04 01:56:18;;;;;;;0.10;0.10;;;;;;;;;;6349692;27;20024;-86
2023/09/04 01:59:18;;;;;;;0.10;0.10;;;;;;;;;;6360887;27;20071;-86
2023/09/04 02:02:19;;;;;;;0.10;0.10;;;;;;;;;;6357960;27;20016;-86
2023/09/04 02:05:19;;;;;;;0.10;0.10;;;;;;;;;;6374004;27;20381;-87
2023/09/04 02:08:20;;;;;;;0.10;0.10;;;;;;;;;;6361488;27;20023;-87
2023/09/04 02:11:20;;;;;;;0.10;0.10;;;;;;;;;;6333952;28;20020;-87
2023/09/04 02:14:20;;;;;;;0.10;0.10;;;;;;;;;;6346514;27;20437;-87
2023/09/04 02:17:20;;;;;;;0.10;0.10;;;;;;;;;;6342920;28;20016;-87
2023/09/04 02:20:20;;;;;;;0.10;0.10;;;;;;;;;;6361693;28;20039;-87
2023/09/04 02:23:21;;;;;;;0.10;0.10;;;;;;;;;;6338278;28;20022;-87
2023/09/04 02:26:21;;;;;;;0.10;0.10;;;;;;;;;;6345031;28;20019;-87
2023/09/04 02:29:22;;;;;;;0.10;0.10;;;;;;;;;;6326696;28;20546;-78
2023/09/04 02:32:22;;;;;;;0.10;0.10;;;;;;;;;;6325653;28;20034;-78
2023/09/04 02:35:23;;;;;;;0.10;0.10;;;;;;;;;;6341114;28;20027;-78
2023/09/04 02:38:23;;;;;;;0.10;0.10;;;;;;;;;;6347606;28;20024;-86
2023/09/04 02:41:24;;;;;;;0.10;0.10;;;;;;;;;;6345970;28;20008;-87
2023/09/04 02:44:24;;;;;;;0.10;0.10;;;;;;;;;;6354584;28;20023;-86
2023/09/04 02:47:24;;;;;;;0.10;0.10;;;;;;;;;;6340543;28;20094;-87
2023/09/04 02:50:24;;;;;;;0.10;0.10;;;;;;;;;;6343841;28;20047;-86
2023/09/04 02:53:27;;;;;;;0.10;0.10;;;;;;;;;;6341993;28;20080;-87
2023/09/04 02:56:27;;;;;;;0.10;0.10;;;;;;;;;;6364730;28;20008;-87
2023/09/04 02:59:30;;;;;;;0.10;0.10;;;;;;;;;;6356285;28;20031;-87
2023/09/04 03:02:30;;;;;;;0.10;0.10;;;;;;;;;;6355646;28;20091;-87
2023/09/04 03:05:30;;;;;;;0.10;0.10;;;;;;;;;;6338843;28;20020;-87
2023/09/04 03:08:30;;;;;;;0.10;0.10;;;;;;;;;;6359358;28;20077;-87
2023/09/04 03:11:31;;;;;;;0.10;0.10;;;;;;;;;;6360209;28;20022;-87
2023/09/04 03:14:31;;;;;;;0.10;0.10;;;;;;;;;;6348428;28;20016;-86
2023/09/04 03:17:32;;;;;;;0.10;0.10;;;;;;;;;;6351463;28;20024;-86
2023/09/04 03:20:33;;;;;;;0.10;0.10;;;;;;;;;;6335960;28;20045;-86
2023/09/04 03:23:34;;;;;;;0.10;0.10;;;;;;;;;;6354507;28;20261;-87
2023/09/04 03:26:40;;;;;;;0.10;0.10;;;;;;;;;;6343286;28;20058;-87
2023/09/04 03:29:40;;;;;;;0.10;0.10;;;;;;;;;;6348604;27;20111;-87
2023/09/04 03:32:40;;;;;;;0.10;0.10;;;;;;;;;;6356261;27;20019;-88
2023/09/04 03:35:41;;;;;;;0.10;0.10;;;;;;;;;;6352350;27;20049;-88
2023/09/04 03:38:41;;;;;;;0.10;0.10;;;;;;;;;;6345200;27;20023;-78
2023/09/04 03:41:41;;;;;;;0.10;0.10;;;;;;;;;;6335639;27;20539;-78
2023/09/04 03:44:41;;;;;;;0.10;0.10;;;;;;;;;;6348469;27;20046;-78
2023/09/04 03:47:42;;;;;;;0.10;0.10;;;;;;;;;;6342916;28;20032;-87
2023/09/04 03:50:43;;;;;;;0.10;0.10;;;;;;;;;;6324149;27;20016;-87
2023/09/04 03:53:43;;;;;;;0.10;0.10;;;;;;;;;;6352193;27;20598;-87
2023/09/04 03:56:44;;;;;;;0.10;0.10;;;;;;;;;;6338582;27;20027;-88
2023/09/04 03:59:45;;;;;;;0.10;0.10;;;;;;;;;;6336627;27;20028;-88
2023/09/04 04:02:49;;;;;;;0.10;0.10;;;;;;;;;;6346407;27;20059;-88
2023/09/04 04:05:49;;;;;;;0.10;0.10;;;;;;;;;;6336967;27;20110;-89
2023/09/04 04:08:54;;;;;;;0.10;0.10;;;;;;;;;;6348282;27;20038;-88
2023/09/04 04:11:54;;;;;;;0.10;0.10;;;;;;;;;;6341691;27;20030;-89
2023/09/04 04:14:57;;;;;;;0.10;0.10;;;;;;;;;;6345003;27;20020;-89
2023/09/04 04:17:57;;;;;;;0.10;0.10;;;;;;;;;;6344138;27;20043;-89
2023/09/04 04:20:58;;;;;;;0.13;0.13;;;;;;;;;;6353328;27;20098;-87
2023/09/04 04:23:58;;;;;;;0.10;0.10;;;;;;;;;;6366981;27;20064;-87
2023/09/04 04:26:58;;;;;;;0.10;0.10;;;;;;;;;;6362543;27;20470;-88
2023/09/04 04:29:58;;;;;;;0.10;0.10;;;;;;;;;;6333224;27;20019;-88
2023/09/04 04:32:59;;;;;;;0.10;0.10;;;;;;;;;;6346179;27;20018;-89
2023/09/04 04:36:00;;;;;;;0.10;0.10;;;;;;;;;;6342574;27;20011;-89
2023/09/04 04:39:03;;;;;;;0.10;0.10;;;;;;;;;;6322021;27;20064;-89
2023/09/04 04:42:03;;;;;;;0.10;0.10;;;;;;;;;;6347667;27;20094;-89
2023/09/04 04:45:04;;;;;;;0.10;0.10;;;;;;;;;;6344383;27;20504;-89
2023/09/04 04:48:04;;;;;;;0.10;0.10;;;;;;;;;;6342961;27;20022;-89
2023/09/04 04:51:05;;;;;;;0.10;0.10;;;;;;;;;;6343649;27;20026;-89
2023/09/04 04:54:05;;;;;;;0.10;0.10;;;;;;;;;;6336468;27;20047;-88
2023/09/04 04:57:06;;;;;;;0.10;0.10;;;;;;;;;;6335436;27;20580;-88
2023/09/04 05:00:07;;;;;;;0.10;0.10;;;;;;;;;;6353305;27;20099;-88
2023/09/04 05:03:08;;;;;;;0.10;0.10;;;;;;;;;;6321309;28;20024;-89
2023/09/04 05:06:09;;;;;;;0.10;0.10;;;;;;;;;;6342517;27;20023;-89
2023/09/04 05:09:09;;;;;;;0.10;0.10;;;;;;;;;;6341457;27;20092;-77
2023/09/04 05:12:09;;;;;;;0.10;0.10;;;;;;;;;;6339422;27;20060;-77
2023/09/04 05:15:10;;;;;;;0.10;0.10;;;;;;;;;;6327121;28;20466;-78
2023/09/04 05:18:10;;;;;;;0.10;0.10;;;;;;;;;;6344455;27;20027;-78
2023/09/04 05:21:10;;;;;;;0.10;0.10;;;;;;;;;;6343978;27;20015;-78
2023/09/04 05:24:10;;;;;;;0.10;0.10;;;;;;;;;;6340348;27;20016;-77
2023/09/04 05:27:10;;;;;;;0.10;0.10;;;;;;;;;;6342032;27;20038;-77
2023/09/04 05:30:11;;;;;;;0.10;0.10;;;;;;;;;;6336894;27;20078;-77
2023/09/04 05:33:12;;;;;;;0.10;0.10;;;;;;;;;;6343236;27;20039;-78
2023/09/04 05:36:12;;;;;;;0.10;0.10;;;;;;;;;;6315833;27;20035;-77
2023/09/04 05:39:12;;;;;;;0.10;0.10;;;;;;;;;;6339583;27;20023;-77
2023/09/04 05:42:12;;;;;;;0.10;0.10;;;;;;;;;;6348831;27;20026;-78
2023/09/04 05:45:12;;;;;;;0.10;0.10;;;;;;;;;;6318477;28;20561;-78
2023/09/04 05:48:13;;;;;;;0.10;0.10;;;;;;;;;;6318860;28;20026;-77
2023/09/04 05:51:13;;;;;;;0.10;0.10;;;;;;;;;;6341797;27;20023;-78
2023/09/04 05:54:13;;;;;;;0.10;0.10;;;;;;;;;;6329543;28;20059;-77
2023/09/04 05:57:15;;;;;;;0.10;0.10;;;;;;;;;;6341371;27;20064;-77
2023/09/04 06:00:15;;;;;;;0.10;0.10;;;;;;;;;;6345002;27;20031;-77
2023/09/04 06:03:15;;;;;;;0.10;0.10;;;;;;;;;;6340652;27;20073;-77
2023/09/04 06:06:15;;;;;;;0.10;0.10;;;;;;;;;;6336182;28;20110;-77
2023/09/04 06:09:15;;;;;;;0.10;0.10;;;;;;;;;;6341594;28;20023;-77
2023/09/04 06:12:17;;;;;;;0.10;0.10;;;;;;;;;;6318154;28;20038;-77
2023/09/04 06:15:19;;;;;;;0.00;0.00;;;;;;;;;;6343018;27;20032;-78
2023/09/04 06:18:19;;;;;;;;;;;;;;;;;;6346105;27;20046;-89
2023/09/04 06:21:19;;;;;;;0.10;0.10;;;;;;;;;;6338454;28;20285;-89
2023/09/04 06:24:21;;;;;;;0.00;0.00;;;;;;;;;;6327480;28;20704;-89
2023/09/04 06:27:21;;;;;;;;;;;;;;;;;;6338361;28;20073;-89
2023/09/04 06:30:21;;;;;;;0.00;0.00;;;;;;;;;;6317138;28;19907;-89
2023/09/04 06:33:23;;;;;;;0.00;0.00;;;;;;;;;;6333498;28;20160;-89
2023/09/04 06:36:23;;;;;;;0.00;0.00;;;;;;;;;;6344781;28;20032;-87
2023/09/04 06:39:23;;;;;;;0.00;0.00;;;;;;;;;;6330821;28;20049;-88
2023/09/04 06:42:23;;;;;;;0.00;0.00;;;;;;;;;;6335436;28;20065;-89
2023/09/04 06:45:24;;;;;;;0.00;0.00;;;;;;;;;;6335945;28;20398;-88
2023/09/04 06:48:24;;;;;;;0.10;0.10;;;;;;;;;;6339071;28;20027;-88
2023/09/04 06:51:24;;;;;;;0.00;0.00;;;;;;;;;;6338824;28;20028;-87
2023/09/04 06:54:24;;;;;;;0.00;0.00;;;;;;;;;;6338588;28;20105;-88
2023/09/04 06:57:25;;;;;;;0.00;0.00;;;;;;;;;;6353671;28;20012;-89
2023/09/04 07:00:26;;;;;;;0.10;0.10;;;;;;;;;;6353620;28;20015;-90
2023/09/04 07:03:26;;;;;;;0.10;0.10;;;;;;;;;;6353537;27;20030;-89
2023/09/04 07:06:26;;;;;;;0.00;0.00;;;;;;;;;;6373750;27;20547;-87
2023/09/04 07:09:26;;;;;;;0.10;0.10;;;;;;;;;;6362639;27;20050;-89
2023/09/04 07:12:27;;;;;;;0.10;0.10;;;;;;;;;;6355383;27;20024;-89
2023/09/04 07:15:27;;;;;;;0.10;0.10;;;;;;;;;;6353566;27;20083;-88
2023/09/04 07:18:29;;;;;;;0.00;0.00;;;;;;;;;;6363006;27;20022;-88
2023/09/04 07:21:29;;;;;;;;;;;;;;;;;;6364766;27;20040;-88
2023/09/04 07:24:29;;;;;;;0.00;0.00;;;;;;;;;;6367376;27;20354;-88
2023/09/04 07:27:30;;;;;;;0.00;0.00;;;;;;;;;;6362151;27;20034;-88
2023/09/04 07:30:31;;;;;;;0.00;0.00;;;;;;;;;;6360347;27;20031;-88
2023/09/04 07:33:32;;;;;;;0.00;0.00;;;;;;;;;;6368530;27;20236;-88
2023/09/04 07:36:32;;;;;;;0.00;0.00;;;;;;;;;;6366122;27;20342;-88
2023/09/04 07:39:32;;;;;;;0.00;0.00;;;;;;;;;;6325755;27;20092;-77
2023/09/04 07:42:32;;;;;;;0.00;0.00;;;;;;;;;;6349245;27;20015;-78
2023/09/04 07:45:32;;;;;;;0.00;0.00;;;;;;;;;;6323981;28;20024;-78
2023/09/04 07:48:34;;;;;;;0.00;0.00;;;;;;;;;;6341047;27;20523;-78
2023/09/04 07:51:34;;;;;;;;;;;;;;;;;;6346010;27;20039;-78
2023/09/04 07:54:34;;;;;;;0.10;0.10;;;;;;;;;;6348332;27;19915;-78
2023/09/04 07:57:34;;;;;;;0.00;0.00;;;;;;;;;;6341487;27;20031;-77
2023/09/04 08:00:36;;;;;;;0.00;0.00;;;;;;;;;;6356468;27;20019;-78
2023/09/04 08:03:36;;;;;;;;;;;;;;;;;;6347098;27;20035;-78
2023/09/04 08:06:37;;;;;;;0.00;0.00;;;;;;;;;;6339149;27;19922;-78
2023/09/04 08:09:38;;;;;;;;;;;;;;;;;;6337153;28;20016;-78
2023/09/04 08:12:38;;;;;;;0.10;0.10;;;;;;;;;;6339107;27;19959;-78
2023/09/04 08:15:38;;;;;;;0.00;0.00;;;;;;;;;;6327829;27;20026;-78
2023/09/04 08:18:38;;;;;;;0.00;0.00;;;;;;;;;;6339626;28;20028;-78
2023/09/04 08:21:39;;;;;;;0.00;0.00;;;;;;;;;;6342599;27;20027;-78
2023/09/04 08:24:39;;;;;;;0.00;0.00;;;;;;;;;;6350098;27;20426;-78
2023/09/04 08:27:39;;;;;;;0.00;0.00;;;;;;;;;;6339897;27;20034;-78
2023/09/04 08:30:40;;;;;;;0.00;0.00;;;;;;;;;;6340884;27;20038;-78
2023/09/04 08:33:40;;;;;;;0.00;0.00;;;;;;;;;;6324630;27;20077;-77
2023/09/04 08:36:42;;;;;;;0.00;0.00;;;;;;;;;;6336982;27;20015;-77
2023/09/04 08:39:43;;;;;;;;;;;;;;;;;;6330235;28;20023;-78
2023/09/04 08:42:44;;;;;;;0.00;0.00;;;;;;;;;;6336624;27;19976;-78
2023/09/04 08:45:44;;;;;;;0.00;0.00;;;;;;;;;;6348816;27;20423;-77
2023/09/04 08:48:45;;;;;;;0.00;0.00;;;;;;;;;;6340614;27;20023;-78
2023/09/04 08:51:45;;;;;;;0.00;0.00;;;;;;;;;;6350765;27;20046;-78
2023/09/04 08:54:46;;;;;;;0.10;0.10;;;;;;;;;;6327401;28;20039;-77
2023/09/04 08:57:47;;;;;;;;;;;;;;;;;;6350514;27;20066;-86
2023/09/04 09:00:48;;;;;;;0.00;0.00;;;;;;;;;;6346156;27;19911;-85
2023/09/04 09:03:48;;;;;;;0.00;0.00;;;;;;;;;;6332876;27;20019;-85
2023/09/04 09:06:49;;;;;;;0.00;0.00;;;;;;;;;;6356836;27;20478;-86
2023/09/04 09:09:50;;;;;;;0.00;0.00;;;;;;;;;;6356900;27;20039;-78
2023/09/04 09:12:50;;;;;;;0.00;0.00;;;;;;;;;;6340884;28;20675;-78
2023/09/04 09:15:53;;;;;;;0.00;0.00;;;;;;;;;;6324168;27;20024;-79
2023/09/04 09:18:53;;;;;;;0.00;0.00;;;;;;;;;;6340236;28;20492;-79
2023/09/04 09:22:10;;;;;;;0.00;0.00;;;;;;;;;;6343098;27;20024;-79
2023/09/04 09:25:17;;;;;;;0.00;0.00;;;;;;;;;;6347251;27;20055;-78
2023/09/04 09:28:17;;;;;;;0.00;0.00;;;;;;;;;;6318893;28;20039;-77
2023/09/04 09:31:20;;;;;;;0.00;0.00;;;;;;;;;;6343512;27;20023;-77
2023/09/04 09:34:21;;;;;;;0.00;0.00;;;;;;;;;;6345703;27;20027;-78
2023/09/04 09:37:23;;;;;;;0.00;0.00;;;;;;;;;;6332332;27;20088;-78
2023/09/04 09:40:23;;;;;;;0.00;0.00;;;;;;;;;;6324600;28;20110;-77
2023/09/04 09:43:25;;;;;;;0.00;0.00;;;;;;;;;;6343169;27;20024;-77
2023/09/04 09:46:25;;;;;;;0.00;0.00;;;;;;;;;;6335348;28;20024;-77
2023/09/04 09:49:26;;;;;;;0.00;0.00;;;;;;;;;;6336882;27;20028;-76
2023/09/04 09:52:26;;;;;;;0.00;0.00;;;;;;;;;;6313208;28;20055;-78
2023/09/04 09:55:28;;;;;;;0.00;0.00;;;;;;;;;;6339819;28;20055;-77
2023/09/04 09:58:28;;;;;;;0.00;0.00;;;;;;;;;;6334889;27;20027;-78
2023/09/04 10:01:32;;;;;;;0.00;0.00;;;;;;;;;;6345587;27;20558;-76
2023/09/04 10:04:32;;;;;;;0.00;0.00;;;;;;;;;;6341930;28;20051;-77
2023/09/04 10:07:34;;;;;;;0.00;0.00;;;;;;;;;;6340911;27;20027;-77
2023/09/04 10:10:36;;;;;;;0.00;0.00;;;;;;;;;;6337628;28;20028;-77
2023/09/04 10:13:38;;;;;;;0.00;0.00;;;;;;;;;;6317682;27;20023;-77
2023/09/04 10:17:08;;;;;;;0.00;0.00;;;;;;;;;;6326753;28;20066;-77
2023/09/04 10:20:08;;;;;;;0.00;0.00;;;;;;;;;;6329896;28;20097;-84
2023/09/04 10:23:11;;;;;;;0.00;0.00;;;;;;;;;;6335866;28;20027;-84
2023/09/04 10:26:15;;;;;;;0.00;0.00;;;;;;;;;;6327838;28;20352;-82
2023/09/04 10:29:21;;;;;;;0.00;0.00;;;;;;;;;;6334048;28;20027;-83
2023/09/04 10:32:22;;;;;;;0.00;0.00;;;;;;;;;;6342860;28;20031;-83
2023/09/04 10:35:24;;;;;;;0.00;0.00;;;;;;;;;;6342882;28;20039;-83
2023/09/04 10:38:25;;;;;;;0.00;0.00;;;;;;;;;;6344806;27;20016;-84
2023/09/04 10:41:26;;;;;;;0.00;0.00;;;;;;;;;;6348458;27;20016;-84
2023/09/04 10:44:46;;;;;;;0.00;0.00;;;;;;;;;;6348832;27;20031;-84
2023/09/04 10:47:47;;;;;;;0.00;0.00;;;;;;;;;;6348554;27;20030;-83
2023/09/04 10:50:47;;;;;;;0.00;0.00;;;;;;;;;;6353172;27;20028;-84
2023/09/04 10:53:49;;;;;;;0.00;0.00;;;;;;;;;;6339691;27;20101;-83
2023/09/04 10:56:55;;;;;;;0.00;0.00;;;;;;;;;;6335319;28;20031;-83
2023/09/04 10:59:55;;;;;;;0.00;0.00;;;;;;;;;;6333772;27;20019;-84
2023/09/04 11:02:56;;;;;;;0.00;0.00;;;;;;;;;;6329127;27;20107;-84
2023/09/04 11:06:04;;;;;;;0.00;0.00;;;;;;;;;;6335387;27;20077;-84
2023/09/04 11:09:05;;;;;;;0.00;0.00;;;;;;;;;;6343312;27;20397;-83
2023/09/04 11:12:10;;;;;;;0.00;0.00;;;;;;;;;;6336117;27;20035;-84
2023/09/04 11:15:13;;;;;;;0.00;0.00;;;;;;;;;;6341820;27;20062;-84
2023/09/04 11:18:15;;;;;;;0.00;0.00;;;;;;;;;;6327681;28;20046;-84
2023/09/04 11:21:15;;;;;;;0.00;0.00;;;;;;;;;;6346369;27;20023;-84
2023/09/04 11:24:16;;;;;;;0.00;0.00;;;;;;;;;;6324729;27;20031;-84
2023/09/04 11:27:17;;;;;;;0.00;0.00;;;;;;;;;;6347460;27;20027;-83
2023/09/04 11:30:17;;;;;;;0.00;0.00;;;;;;;;;;6342074;27;20449;-83
2023/09/04 11:33:20;;;;;;;0.00;0.00;;;;;;;;;;6349835;27;20054;-83
2023/09/04 11:36:20;;;;;;;0.00;0.00;;;;;;;;;;6341254;27;20028;-83
2023/09/04 11:39:22;;;;;;;0.00;0.00;;;;;;;;;;6333720;22;20098;-88
2023/09/04 11:42:23;;;;;;;0.00;0.00;;;;;;;;;;6335746;28;20034;-88
2023/09/04 11:45:26;;;;;;;0.00;0.00;;;;;;;;;;6330139;28;20477;-89
2023/09/04 11:48:27;;;;;;;0.00;0.00;;;;;;;;;;6303003;28;20032;-89
2023/09/04 11:51:28;;;;;;;0.00;0.00;;;;;;;;;;6297024;28;20658;-89
2023/09/04 11:54:31;;;;;;;0.00;0.00;;;;;;;;;;6302557;28;20035;-88
2023/09/04 11:57:32;;;;;;;0.00;0.00;;;;;;;;;;6321509;28;20024;-89
2023/09/04 12:00:33;;;;;;;0.00;0.00;;;;;;;;;;6312802;28;20438;-88
2023/09/04 12:03:34;;;;;;;0.00;0.00;;;;;;;;;;6320425;28;20024;-89
2023/09/04 12:06:36;;;;;;;0.00;0.00;;;;;;;;;;6319561;28;20016;-89
2023/09/04 12:09:37;;;;;;;0.00;0.00;;;;;;;;;;6305951;28;20114;-89
2023/09/04 12:12:38;;;;;;;0.00;0.00;;;;;;;;;;6322172;28;20116;-89
2023/09/04 12:15:38;;;;;;;0.00;0.00;;;;;;;;;;6307292;28;20107;-89
2023/09/04 12:18:38;;;;;;;0.00;0.00;;;;;;;;;;6309062;28;20266;-88
2023/09/04 12:21:39;;;;;;;0.00;0.00;;;;;;;;;;6320130;28;20018;-87
2023/09/04 12:24:39;;;;;;;0.00;0.00;;;;;;;;;;6323901;28;20028;-90
2023/09/04 12:27:40;;;;;;;0.00;0.00;;;;;;;;;;6324121;28;20379;-90
2023/09/04 12:30:44;;;;;;;0.00;0.00;;;;;;;;;;6321854;28;20666;-90
2023/09/04 12:33:44;;;;;;;0.00;0.00;;;;;;;;;;6333312;28;20110;-91
2023/09/04 12:36:44;;;;;;;0.00;0.00;;;;;;;;;;6315699;28;20152;-90
2023/09/04 12:39:44;;;;;;;0.00;0.00;;;;;;;;;;6301364;28;20055;-90
2023/09/04 12:42:45;;;;;;;0.00;0.00;;;;;;;;;;6305209;28;20031;-90
2023/09/04 12:45:46;;;;;;;0.00;0.00;;;;;;;;;;6286607;28;20574;-90
2023/09/04 12:48:46;;;;;;;;;;;;;;;;;;6309209;28;20063;-85
2023/09/04 12:51:47;;;;;;;0.00;0.00;;;;;;;;;;6318791;28;19908;-85
2023/09/04 12:54:48;;;;;;;0.00;0.00;;;;;;;;;;6322043;28;20025;-85
2023/09/04 12:57:49;;;;;;;0.00;0.00;;;;;;;;;;6299448;28;20024;-84
2023/09/04 13:00:49;;;;;;;0.00;0.00;;;;;;;;;;6322819;28;20492;-84
2023/09/04 13:03:49;;;;;;;0.00;0.00;;;;;;;;;;6304350;28;20035;-84
2023/09/04 13:06:50;;;;;;;0.00;0.00;;;;;;;;;;6318609;28;20020;-84
2023/09/04 13:09:51;;;;;;;0.00;0.00;;;;;;;;;;6303336;28;20322;-83
2023/09/04 13:12:51;;;;;;;0.00;0.00;;;;;;;;;;6302591;28;20142;-84
2023/09/04 13:15:51;;;;;;;0.00;0.00;;;;;;;;;;6295475;28;20031;-84
2023/09/04 13:18:53;;;;;;;0.00;0.00;;;;;;;;;;6306849;28;20096;-84
2023/09/04 13:21:53;;;;;;;0.00;0.00;;;;;;;;;;6322356;28;20069;-84
2023/09/04 13:24:53;;;;;;;0.00;0.00;;;;;;;;;;6300835;28;20371;-84
2023/09/04 13:27:54;;;;;;;0.00;0.00;;;;;;;;;;6311897;28;20031;-84
2023/09/04 13:30:54;;;;;;;0.00;0.00;;;;;;;;;;6321242;28;20445;-84
2023/09/04 13:33:54;;;;;;;0.00;0.00;;;;;;;;;;6301630;28;20119;-84
2023/09/04 13:36:54;;;;;;;0.00;0.00;;;;;;;;;;6319650;28;20519;-85
2023/09/04 13:39:55;;;;;;;0.00;0.00;;;;;;;;;;6313335;28;20063;-84
2023/09/04 13:42:55;;;;;;;0.00;0.00;;;;;;;;;;6326882;28;20011;-84
2023/09/04 13:45:55;;;;;;;0.00;0.00;;;;;;;;;;6321724;28;20024;-83
2023/09/04 13:48:55;;;;;;;0.00;0.00;;;;;;;;;;6319670;28;20020;-84
2023/09/04 13:51:55;;;;;;;0.00;0.00;;;;;;;;;;6322805;28;20047;-84
2023/09/04 13:54:56;;;;;;;0.00;0.00;;;;;;;;;;6302490;28;20501;-84
2023/09/04 13:57:56;;;;;;;;;;;;;;;;;;6302431;28;20111;-84
2023/09/04 14:00:56;;;;;;;0.00;0.00;;;;;;;;;;6320252;28;19908;-83
2023/09/04 14:03:56;;;;;;;;;;;;;;;;;;6317925;28;20021;-84
2023/09/04 14:06:57;;;;;;;0.00;0.00;;;;;;;;;;6319735;28;20358;-83
2023/09/04 14:09:57;;;;;;;;;;;;;;;;;;6326010;28;20019;-84
2023/09/04 14:12:57;;;;;;;0.00;0.00;;;;;;;;;;6328878;28;19908;-84
2023/09/04 14:15:57;;;;;;;;;;;;;;;;;;6310692;28;20470;-84
2023/09/04 14:18:57;;;;;;;0.00;0.00;;;;;;;;;;6304721;28;19999;-84
2023/09/04 14:21:57;;;;;;;0.00;0.00;;;;;;;;;;6317804;28;20016;-84
2023/09/04 14:24:58;;;;;;;0.00;0.00;;;;;;;;;;6297484;28;20032;-84
2023/09/04 14:27:58;;;;;;;0.00;0.00;;;;;;;;;;6322311;28;21152;-84
2023/09/04 14:30:58;;;;;;;0.00;0.00;;;;;;;;;;6315042;28;20032;-84
2023/09/04 14:33:58;;;;;;;0.00;0.00;;;;;;;;;;6296069;28;20036;-84
2023/09/04 14:36:58;;;;;;;0.00;0.00;;;;;;;;;;6316411;28;20032;-84
2023/09/04 14:40:03;;;;;;;0.00;0.00;;;;;;;;;;6298533;28;20055;-84
2023/09/04 14:43:05;;;;;;;0.00;0.00;;;;;;;;;;6321643;28;20012;-85
2023/09/04 14:46:08;;;;;;;0.00;0.00;;;;;;;;;;6315433;28;20139;-84
2023/09/04 14:49:10;;;;;;;0.00;0.00;;;;;;;;;;6296210;28;20486;-84
2023/09/04 14:52:10;;;;;;;0.00;0.00;;;;;;;;;;6321160;28;20034;-84
2023/09/04 14:55:10;;;;;;;0.00;0.00;;;;;;;;;;6333522;28;20047;-84
2023/09/04 14:58:11;;;;;;;0.00;0.00;;;;;;;;;;6315779;28;20023;-83
2023/09/04 15:01:15;;;;;;;0.00;0.00;;;;;;;;;;6297027;28;20024;-84
2023/09/04 15:04:15;;;;;;;0.00;0.00;;;;;;;;;;6298647;28;20032;-83
2023/09/04 15:07:16;;;;;;;0.00;0.00;;;;;;;;;;6318240;28;20031;-85
2023/09/04 15:10:16;;;;;;;0.00;0.00;;;;;;;;;;6320573;28;20274;-85
2023/09/04 15:13:17;;;;;;;0.00;0.00;;;;;;;;;;6316944;28;20097;-84
2023/09/04 15:16:17;;;;;;;0.00;0.00;;;;;;;;;;6315293;28;20028;-83
2023/09/04 15:19:17;;;;;;;0.00;0.00;;;;;;;;;;6315391;28;20020;-84
2023/09/04 15:22:18;;;;;;;0.00;0.00;;;;;;;;;;6296645;28;20027;-84
2023/09/04 15:25:18;;;;;;;;;;;;;;;;;;6329476;28;20698;-85
2023/09/04 15:28:18;;;;;;;0.00;0.00;;;;;;;;;;6328058;28;20285;-84
2023/09/04 15:31:18;;;;;;;0.00;0.00;;;;;;;;;;6331388;28;20600;-84
2023/09/04 15:34:18;;;;;;;0.00;0.00;;;;;;;;;;6301183;28;20109;-83
2023/09/04 15:37:19;;;;;;;;;;;;;;;;;;6329472;28;20481;-84
2023/09/04 15:40:19;;;;;;;0.00;0.00;;;;;;;;;;6319319;28;19911;-83
2023/09/04 15:43:20;;;;;;;;;;;;;;;;;;6302193;28;20055;-85
2023/09/04 15:46:21;;;;;;;0.00;0.00;;;;;;;;;;6322368;28;20374;-85
2023/09/04 15:49:21;;;;;;;0.00;0.00;;;;;;;;;;6324266;28;20024;-84
2023/09/04 15:52:22;;;;;;;0.00;0.00;;;;;;;;;;6315295;28;20027;-84
2023/09/04 15:55:23;;;;;;;0.00;0.00;;;;;;;;;;6301865;28;20031;-84
2023/09/04 15:58:24;;;;;;;0.00;0.00;;;;;;;;;;6323693;28;20065;-85
2023/09/04 16:01:24;;;;;;;0.00;0.00;;;;;;;;;;6322499;28;20024;-82
2023/09/04 16:04:24;;;;;;;0.00;0.00;;;;;;;;;;6312345;28;20410;-84
2023/09/04 16:07:25;;;;;;;0.00;0.00;;;;;;;;;;6298344;28;20051;-85
2023/09/04 16:10:25;;;;;;;0.00;0.00;;;;;;;;;;6328407;28;20146;-84
2023/09/04 16:13:25;;;;;;;0.00;0.00;;;;;;;;;;6318626;28;20052;-84
2023/09/04 16:16:25;;;;;;;0.00;0.00;;;;;;;;;;6329824;28;20054;-84
2023/09/04 16:19:28;;;;;;;0.00;0.00;;;;;;;;;;6304291;28;20020;-84
2023/09/04 16:22:28;;;;;;;0.00;0.00;;;;;;;;;;6327164;28;20030;-85
2023/09/04 16:25:29;;;;;;;0.00;0.00;;;;;;;;;;6299618;28;20019;-85
2023/09/04 16:28:29;;;;;;;0.00;0.00;;;;;;;;;;6317545;28;20028;-85
2023/09/04 16:31:30;;;;;;;0.00;0.00;;;;;;;;;;6329202;28;20038;-85
2023/09/04 16:34:31;;;;;;;0.00;0.00;;;;;;;;;;6318170;28;20031;-85
2023/09/04 16:37:31;;;;;;;0.00;0.00;;;;;;;;;;6326191;28;20067;-85
2023/09/04 16:40:31;;;;;;;0.00;0.00;;;;;;;;;;6300501;28;20438;-85
2023/09/04 16:43:32;;;;;;;0.00;0.00;;;;;;;;;;6294176;28;20101;-84
2023/09/04 16:46:32;;;;;;;0.00;0.00;;;;;;;;;;6308218;28;20038;-84
2023/09/04 16:49:33;;;;;;;0.00;0.00;;;;;;;;;;6320984;28;20486;-84
2023/09/04 16:52:33;;;;;;;0.00;0.00;;;;;;;;;;6318200;28;20107;-84
2023/09/04 16:55:35;;;;;;;0.00;0.00;;;;;;;;;;6299667;28;20130;-84
2023/09/04 16:58:36;;;;;;;0.00;0.00;;;;;;;;;;6301745;28;20032;-84
2023/09/04 17:01:36;;;;;;;0.00;0.00;;;;;;;;;;6322480;28;20027;-84
2023/09/04 17:04:36;;;;;;;0.00;0.00;;;;;;;;;;6301327;28;20035;-84
2023/09/04 17:07:36;;;;;;;0.00;0.00;;;;;;;;;;6300343;28;20024;-84
2023/09/04 17:10:38;;;;;;;0.00;0.00;;;;;;;;;;6325458;28;20030;-85
2023/09/04 17:13:40;;;;;;;0.00;0.00;;;;;;;;;;6323738;28;20035;-84
2023/09/04 17:16:40;;;;;;;0.08;0.08;;;;;;;;;;6300749;28;20035;-84
2023/09/04 17:19:41;;;;;;;0.03;0.03;;;;;;;;;;6299802;28;20012;-84
2023/09/04 17:22:41;;;;;;;0.10;0.10;;;;;;;;;;6324032;28;20012;-84
2023/09/04 17:25:41;;;;;;;0.00;0.00;;;;;;;;;;6324307;28;20507;-84
2023/09/04 17:28:41;;;;;;;0.00;0.00;;;;;;;;;;6326049;28;20028;-84
2023/09/04 17:31:41;;;;;;;0.10;0.10;;;;;;;;;;6304888;28;20728;-85
2023/09/04 17:34:42;;;;;;;0.10;0.10;;;;;;;;;;6314915;28;20020;-84
2023/09/04 17:37:42;;;;;;;0.10;0.10;;;;;;;;;;6318895;28;20040;-85
2023/09/04 17:40:43;;;;;;;0.10;0.10;;;;;;;;;;6324291;28;20024;-84
2023/09/04 17:43:45;;;;;;;0.10;0.10;;;;;;;;;;6318393;28;20032;-83
2023/09/04 17:46:45;;;;;;;0.00;0.00;;;;;;;;;;6317301;28;20023;-84
2023/09/04 17:49:45;;;;;;;0.10;0.10;;;;;;;;;;6316751;28;20110;-89
2023/09/04 17:52:45;;;;;;;0.10;0.10;;;;;;;;;;6300140;28;20028;-89
2023/09/04 17:55:47;;;;;;;0.10;0.10;;;;;;;;;;6296637;28;20039;-89
2023/09/04 17:58:47;;;;;;;;;;;;;;;;;;6296624;28;20032;-89
2023/09/04 18:01:48;;;;;;;0.10;0.10;;;;;;;;;;6310745;28;20453;-89
2023/09/04 18:04:48;;;;;;;0.10;0.10;;;;;;;;;;6324977;28;20032;-89
2023/09/04 18:07:50;;;;;;;0.10;0.10;;;;;;;;;;6317269;28;20028;-89
2023/09/04 18:10:50;;;;;;;;;;;;;;;;;;6301392;28;20130;-89